Castle Douglas, United Kingdom
Current Conditions -  °F | °C
As of 7:20 AM on Thursday 23 Oct 2014 (Local Time) from EGPK Reporting Station
Broken Clouds Broken Clouds  
Wind Chill: 54°   Ceiling: 1500
Heat Index: 54°   Visibility: 6mi
Dew Point: 50°   Wind: 13mph
Humidity: 88%   Direction: 200°SSW
Pressure: 29.85"   Gusts: NA
Location:  54.94°N, 3.93°W
Report Text: EGPK 230620Z 20011KT 9999 BKN015 12/10 Q1011
Loading
Personal Weather Stations






























Interactive Weather Map
Tropical Storm Tracking
New forecast layout! Learn more

10-Day Weather Forecast

Advertisements
Track Severe Weather on mobile